createdAt,value
2022-10-22T00:00:01.176Z,11.45
2022-10-22T00:02:28.026Z,11.70
2022-10-22T00:04:57.042Z,11.40
2022-10-22T00:07:23.908Z,13.80
2022-10-22T00:09:50.462Z,13.62
2022-10-22T00:12:17.117Z,12.80
2022-10-22T00:14:43.668Z,11.12
2022-10-22T00:17:11.546Z,10.00
2022-10-22T00:19:38.889Z,10.70
2022-10-22T00:22:05.854Z,10.82
2022-10-22T00:24:33.115Z,11.75
2022-10-22T00:26:59.652Z,13.93
2022-10-22T00:29:26.182Z,10.23
2022-10-22T00:31:52.856Z,10.85
2022-10-22T00:34:21.183Z,10.18
2022-10-22T00:36:51.409Z,8.40
2022-10-22T00:39:19.403Z,8.23
2022-10-22T00:41:46.974Z,10.75
2022-10-22T00:46:59.100Z,10.82
2022-10-22T00:49:25.837Z,9.50
2022-10-22T00:51:52.397Z,9.00
2022-10-22T00:54:18.910Z,15.05
2022-10-22T00:56:46.359Z,12.40
2022-10-22T00:59:13.053Z,9.73
2022-10-22T01:01:39.587Z,12.88
2022-10-22T01:04:06.155Z,8.73
2022-10-22T01:06:33.337Z,11.95
2022-10-22T01:09:16.603Z,12.68
2022-10-22T01:12:07.422Z,11.45
2022-10-22T01:14:44.152Z,12.60
2022-10-22T01:17:16.510Z,8.77
2022-10-22T01:19:54.070Z,9.98
2022-10-22T01:22:36.259Z,10.20
2022-10-22T01:25:38.241Z,9.57
2022-10-22T01:28:41.556Z,9.23
2022-10-22T01:31:08.204Z,10.05
2022-10-22T01:33:35.195Z,10.85
2022-10-22T01:36:01.873Z,7.95
2022-10-22T01:38:28.423Z,16.80
2022-10-22T01:40:54.961Z,9.10
2022-10-22T01:43:21.596Z,8.60
2022-10-22T01:45:52.760Z,10.10
2022-10-22T01:48:37.940Z,9.07
2022-10-22T01:51:23.039Z,9.95
2022-10-22T01:54:21.632Z,8.48
2022-10-22T01:56:53.806Z,12.90
2022-10-22T01:59:22.871Z,10.60
2022-10-22T02:01:56.294Z,15.82
2022-10-22T02:04:32.366Z,13.15
2022-10-22T02:07:00.444Z,10.30
2022-10-22T02:09:27.406Z,12.18
2022-10-22T02:11:54.215Z,8.97
2022-10-22T02:14:21.250Z,10.02
2022-10-22T02:16:48.944Z,8.60
2022-10-22T02:19:43.857Z,13.93
2022-10-22T02:22:10.422Z,7.78
2022-10-22T02:24:36.936Z,10.80
2022-10-22T02:27:16.624Z,9.75
2022-10-22T02:29:58.875Z,11.40
2022-10-22T02:32:27.202Z,9.00
2022-10-22T02:34:53.990Z,12.15
2022-10-22T02:37:20.551Z,10.77
2022-10-22T02:39:47.070Z,10.18
2022-10-22T02:42:13.663Z,10.32
2022-10-22T02:44:40.352Z,10.25
2022-10-22T02:47:06.886Z,10.55
2022-10-22T02:49:33.410Z,12.05
2022-10-22T02:51:59.942Z,11.38
2022-10-22T02:54:26.465Z,9.60
2022-10-22T02:56:53.075Z,14.70
2022-10-22T02:59:19.605Z,8.63
2022-10-22T03:01:46.138Z,10.75
2022-10-22T03:04:12.675Z,11.70
2022-10-22T03:06:39.215Z,10.85
2022-10-22T03:09:05.801Z,9.30
2022-10-22T03:11:32.416Z,12.52
2022-10-22T03:13:58.935Z,10.07
2022-10-22T03:16:25.488Z,10.90
2022-10-22T03:18:52.017Z,10.75
2022-10-22T03:21:30.679Z,10.05
2022-10-22T03:23:57.212Z,12.25
2022-10-22T03:26:24.075Z,11.20
2022-10-22T03:28:50.582Z,11.20
2022-10-22T03:31:17.137Z,13.27
2022-10-22T03:33:43.664Z,10.52
2022-10-22T03:36:10.198Z,10.25
2022-10-22T03:38:37.603Z,12.10
2022-10-22T03:41:04.153Z,9.98
2022-10-22T03:43:30.659Z,12.23
2022-10-22T03:45:57.208Z,11.88
2022-10-22T03:48:23.771Z,10.98
2022-10-22T03:50:50.316Z,14.48
2022-10-22T03:53:16.838Z,9.20
2022-10-22T03:55:43.403Z,11.52
2022-10-22T03:58:09.950Z,10.75
2022-10-22T04:00:36.546Z,9.98
2022-10-22T04:03:03.244Z,10.38
2022-10-22T04:05:29.762Z,11.45
2022-10-22T04:07:56.302Z,13.05
2022-10-22T04:10:22.837Z,11.68
2022-10-22T04:12:49.411Z,12.95
2022-10-22T04:15:16.049Z,11.73
2022-10-22T04:17:42.919Z,12.55
2022-10-22T04:20:10.345Z,14.85
2022-10-22T04:22:36.908Z,14.90
2022-10-22T04:25:03.942Z,12.52
2022-10-22T04:27:33.441Z,11.32
2022-10-22T04:29:59.984Z,13.27
2022-10-22T04:32:27.137Z,10.95
2022-10-22T04:34:53.693Z,10.82
2022-10-22T04:37:20.315Z,11.73
2022-10-22T04:39:46.830Z,14.40
2022-10-22T04:42:14.149Z,14.23
2022-10-22T04:44:40.833Z,15.93
2022-10-22T04:47:07.365Z,12.35
2022-10-22T04:49:33.889Z,10.13
2022-10-22T04:52:00.435Z,15.77
2022-10-22T04:54:29.137Z,13.20
2022-10-22T04:56:59.456Z,12.45
2022-10-22T04:59:26.059Z,12.68
2022-10-22T05:01:52.590Z,14.40
2022-10-22T05:04:19.735Z,11.98
2022-10-22T05:06:46.367Z,13.07
2022-10-22T05:09:17.778Z,14.02
2022-10-22T05:11:51.384Z,12.85
2022-10-22T05:14:22.217Z,12.40
2022-10-22T05:16:49.407Z,13.50
2022-10-22T05:19:24.556Z,10.48
2022-10-22T05:21:52.224Z,11.20
2022-10-22T05:24:18.743Z,11.68
2022-10-22T05:26:45.296Z,13.10
2022-10-22T05:29:11.827Z,11.75
2022-10-22T05:31:38.893Z,14.07
2022-10-22T05:34:05.444Z,9.88
2022-10-22T05:36:31.963Z,10.48
2022-10-22T05:38:58.742Z,10.75
2022-10-22T05:41:25.870Z,9.43
2022-10-22T05:43:54.916Z,12.02
2022-10-22T05:46:23.134Z,13.85
2022-10-22T05:48:54.554Z,17.23
2022-10-22T05:51:21.387Z,9.57
2022-10-22T05:53:51.861Z,14.07
2022-10-22T05:56:18.385Z,11.23
2022-10-22T05:58:44.956Z,10.68
2022-10-22T06:01:12.308Z,12.20
2022-10-22T06:03:38.858Z,13.27
2022-10-22T06:06:30.378Z,11.70
2022-10-22T06:08:57.381Z,16.27
2022-10-22T06:11:23.964Z,14.02
2022-10-22T06:13:50.643Z,11.63
2022-10-22T06:16:17.297Z,13.88
2022-10-22T06:18:43.809Z,12.32
2022-10-22T06:21:12.207Z,11.07
2022-10-22T06:23:38.845Z,13.35
2022-10-22T06:26:05.649Z,11.18
2022-10-22T06:28:32.262Z,13.23
2022-10-22T06:30:59.367Z,10.60
2022-10-22T06:33:26.655Z,10.65
2022-10-22T06:35:53.353Z,13.05
2022-10-22T06:38:19.907Z,11.55
2022-10-22T06:40:46.483Z,12.13
2022-10-22T06:43:14.029Z,12.40
2022-10-22T06:45:40.614Z,12.18
2022-10-22T06:48:07.150Z,10.15
2022-10-22T06:50:36.718Z,12.25
2022-10-22T06:53:03.289Z,9.35
2022-10-22T06:55:29.829Z,12.57
2022-10-22T06:57:56.417Z,10.30
2022-10-22T07:00:23.000Z,9.25
2022-10-22T07:02:56.466Z,11.68
2022-10-22T07:05:25.686Z,12.82
2022-10-22T07:07:52.269Z,11.95
2022-10-22T07:10:18.895Z,12.45
2022-10-22T07:12:45.412Z,10.88
2022-10-22T07:15:12.213Z,12.65
2022-10-22T07:20:10.602Z,11.82
2022-10-22T07:22:37.150Z,14.30
2022-10-22T07:25:07.380Z,13.10
2022-10-22T07:27:34.133Z,12.63
2022-10-22T07:30:01.476Z,14.20
2022-10-22T07:32:28.099Z,12.05
2022-10-22T07:34:54.697Z,11.30
2022-10-22T07:37:22.060Z,12.18
2022-10-22T07:39:49.745Z,13.82
2022-10-22T07:42:16.473Z,17.75
2022-10-22T07:44:43.187Z,10.90
2022-10-22T07:47:09.747Z,11.80
2022-10-22T07:49:36.308Z,14.48
2022-10-22T07:52:02.861Z,12.07
2022-10-22T07:54:29.484Z,16.35
2022-10-22T07:56:56.046Z,13.00
2022-10-22T07:59:22.686Z,10.77
2022-10-22T08:01:49.249Z,13.32
2022-10-22T08:04:15.793Z,17.25
2022-10-22T08:06:45.741Z,13.40
2022-10-22T08:09:14.093Z,16.10
2022-10-22T08:11:40.726Z,12.57
2022-10-22T08:14:07.248Z,15.37
2022-10-22T08:16:33.798Z,13.20
2022-10-22T08:19:00.308Z,14.60
2022-10-22T08:21:26.952Z,12.63
2022-10-22T08:23:53.672Z,14.07
2022-10-22T08:26:20.250Z,16.15
2022-10-22T08:28:48.375Z,18.30
2022-10-22T08:31:14.931Z,17.00
2022-10-22T08:33:42.015Z,14.00
2022-10-22T08:36:08.838Z,15.93
2022-10-22T08:38:35.494Z,16.30
2022-10-22T08:41:28.146Z,13.87
2022-10-22T08:44:04.472Z,13.20
2022-10-22T08:46:51.042Z,15.13
2022-10-22T08:49:21.060Z,16.67
2022-10-22T08:51:47.587Z,19.73
2022-10-22T08:54:22.189Z,17.75
2022-10-22T08:57:10.988Z,18.75
2022-10-22T09:00:11.909Z,24.42
2022-10-22T09:02:52.349Z,18.12
2022-10-22T09:05:49.418Z,21.80
2022-10-22T09:08:17.186Z,15.25
2022-10-22T09:10:47.675Z,20.17
2022-10-22T09:13:16.932Z,18.52
2022-10-22T09:15:46.385Z,16.77
2022-10-22T09:18:38.636Z,20.15
2022-10-22T09:21:30.049Z,30.52
2022-10-22T09:24:22.650Z,32.40
2022-10-22T09:26:49.295Z,19.50
2022-10-22T09:29:19.739Z,28.27
2022-10-22T09:31:46.369Z,19.98
2022-10-22T09:34:15.251Z,19.30
2022-10-22T09:36:41.802Z,18.65
2022-10-22T09:39:22.609Z,17.12
2022-10-22T09:41:49.137Z,15.93
2022-10-22T09:44:15.685Z,14.65
2022-10-22T09:46:45.495Z,15.40
2022-10-22T09:49:16.806Z,15.23
2022-10-22T09:51:57.132Z,15.32
2022-10-22T09:54:38.474Z,20.45
2022-10-22T09:57:13.987Z,17.83
2022-10-22T09:59:41.773Z,16.98
2022-10-22T10:02:37.054Z,19.27
2022-10-22T10:05:05.279Z,17.60
2022-10-22T10:07:32.330Z,18.87
2022-10-22T10:09:58.875Z,17.77
2022-10-22T10:12:39.286Z,17.70
2022-10-22T10:15:20.936Z,17.15
2022-10-22T10:18:21.659Z,19.62
2022-10-22T10:21:04.746Z,20.83
2022-10-22T10:23:44.930Z,21.48
2022-10-22T10:26:18.923Z,17.17
2022-10-22T10:29:04.750Z,18.75
2022-10-22T10:31:58.527Z,16.50
2022-10-22T10:34:40.820Z,23.48
2022-10-22T10:37:26.644Z,18.62
2022-10-22T10:40:10.362Z,19.10
2022-10-22T10:42:48.250Z,21.50
2022-10-22T10:45:24.520Z,19.55
2022-10-22T10:47:55.108Z,17.02
2022-10-22T10:50:29.247Z,23.00
2022-10-22T10:53:28.046Z,17.27
2022-10-22T10:56:22.472Z,23.17
2022-10-22T10:58:56.569Z,19.05
2022-10-22T11:01:34.885Z,18.00
2022-10-22T11:04:06.306Z,23.60
2022-10-22T11:06:33.109Z,21.00
2022-10-22T11:09:03.205Z,20.90
2022-10-22T11:11:44.380Z,18.58
2022-10-22T11:15:06.221Z,20.62
2022-10-22T11:17:38.623Z,20.67
2022-10-22T11:20:17.183Z,19.05
2022-10-22T11:23:16.843Z,21.48
2022-10-22T11:25:39.693Z,18.80
2022-10-22T11:28:11.767Z,20.17
2022-10-22T11:30:38.574Z,29.30
2022-10-22T11:33:11.791Z,20.37
2022-10-22T11:35:40.551Z,20.77
2022-10-22T11:38:09.691Z,20.35
2022-10-22T11:40:37.282Z,21.23
2022-10-22T11:45:38.833Z,20.40
2022-10-22T11:48:10.953Z,17.70
2022-10-22T11:51:05.354Z,17.15
2022-10-22T11:53:36.086Z,23.23
2022-10-22T11:56:09.931Z,23.77
2022-10-22T11:58:50.742Z,27.08
2022-10-22T12:01:29.009Z,20.35
2022-10-22T12:03:58.303Z,20.15
2022-10-22T12:06:25.878Z,18.20
2022-10-22T12:11:47.657Z,22.05
2022-10-22T12:14:23.017Z,18.12
2022-10-22T12:17:07.755Z,24.33
2022-10-22T12:19:44.745Z,20.65
2022-10-22T12:22:23.895Z,21.00
2022-10-22T12:24:52.370Z,20.65
2022-10-22T12:27:26.091Z,21.42
2022-10-22T12:29:56.813Z,23.60
2022-10-22T12:32:23.374Z,22.80
2022-10-22T12:34:51.432Z,22.98
2022-10-22T12:37:18.226Z,20.30
2022-10-22T12:39:45.295Z,20.00
2022-10-22T12:42:17.135Z,25.50
2022-10-22T12:44:44.613Z,20.40
2022-10-22T12:47:15.311Z,21.83
2022-10-22T12:49:43.933Z,22.60
2022-10-22T12:52:16.963Z,27.75
2022-10-22T12:54:44.253Z,19.73
2022-10-22T12:57:12.856Z,22.17
2022-10-22T12:59:39.445Z,26.05
2022-10-22T13:02:23.907Z,21.23
2022-10-22T13:05:19.624Z,23.20
2022-10-22T13:08:03.725Z,23.90
2022-10-22T13:10:34.501Z,25.65
2022-10-22T13:13:06.384Z,21.45
2022-10-22T13:15:40.464Z,19.17
2022-10-22T13:18:22.753Z,19.25
2022-10-22T13:20:56.764Z,22.15
2022-10-22T13:23:25.204Z,18.67
2022-10-22T13:26:03.326Z,20.92
2022-10-22T13:28:30.845Z,21.23
2022-10-22T13:31:01.476Z,21.77
2022-10-22T13:33:35.021Z,18.05
2022-10-22T13:36:01.546Z,23.40
2022-10-22T13:38:28.237Z,22.87
2022-10-22T13:40:55.360Z,24.40
2022-10-22T13:43:22.136Z,19.73
2022-10-22T13:45:49.715Z,21.92
2022-10-22T13:50:43.008Z,24.33
2022-10-22T13:53:18.735Z,19.08
2022-10-22T13:55:45.689Z,25.48
2022-10-22T13:58:13.432Z,25.35
2022-10-22T14:00:42.435Z,20.42
2022-10-22T14:03:11.058Z,31.15
2022-10-22T14:05:37.608Z,21.33
2022-10-22T14:08:04.334Z,20.55
2022-10-22T14:10:30.899Z,20.12
2022-10-22T14:12:58.524Z,23.95
2022-10-22T14:17:56.359Z,19.90
2022-10-22T14:20:29.921Z,23.70
2022-10-22T14:22:56.710Z,22.48
2022-10-22T14:25:24.786Z,20.17
2022-10-22T14:27:51.422Z,26.17
2022-10-22T14:30:19.811Z,20.12
2022-10-22T14:32:46.355Z,23.42
2022-10-22T14:35:14.169Z,23.17
2022-10-22T14:37:40.795Z,18.87
2022-10-22T14:40:08.271Z,19.40
2022-10-22T14:42:41.637Z,19.23
2022-10-22T14:45:16.347Z,18.17
2022-10-22T14:47:43.201Z,18.58
2022-10-22T14:50:10.279Z,18.33
2022-10-22T14:52:36.889Z,22.80
2022-10-22T14:55:03.722Z,21.73
2022-10-22T14:57:30.250Z,19.97
2022-10-22T14:59:56.856Z,20.12
2022-10-22T15:02:23.367Z,23.38
2022-10-22T15:04:49.980Z,19.62
2022-10-22T15:07:18.920Z,24.60
2022-10-22T15:09:45.650Z,22.20
2022-10-22T15:12:12.176Z,19.37
2022-10-22T15:14:38.736Z,19.42
2022-10-22T15:17:05.306Z,23.38
2022-10-22T15:19:31.884Z,19.67
2022-10-22T15:21:58.462Z,20.85
2022-10-22T15:24:25.087Z,18.23
2022-10-22T15:26:53.387Z,20.45
2022-10-22T15:29:20.122Z,20.12
2022-10-22T15:31:53.792Z,18.33
2022-10-22T15:34:22.752Z,21.17
2022-10-22T15:36:49.682Z,18.30
2022-10-22T15:39:16.231Z,15.48
2022-10-22T15:41:43.029Z,16.62
2022-10-22T15:44:15.156Z,17.93
2022-10-22T15:46:41.764Z,18.45
2022-10-22T15:49:08.340Z,15.98
2022-10-22T15:51:34.867Z,17.92
2022-10-22T15:54:01.426Z,20.05
2022-10-22T15:56:28.689Z,18.52
2022-10-22T15:58:56.404Z,19.05
2022-10-22T16:03:52.425Z,18.73
2022-10-22T16:06:19.432Z,18.65
2022-10-22T16:08:46.024Z,19.15
2022-10-22T16:11:12.800Z,18.95
2022-10-22T16:13:39.347Z,19.83
2022-10-22T16:16:07.936Z,18.75
2022-10-22T16:18:34.506Z,22.20
2022-10-22T16:21:01.041Z,23.38
2022-10-22T16:23:27.608Z,22.08
2022-10-22T16:25:54.152Z,22.37
2022-10-22T16:28:20.755Z,23.58
2022-10-22T16:30:47.319Z,25.80
2022-10-22T16:33:13.838Z,23.77
2022-10-22T16:35:43.435Z,21.12
2022-10-22T16:38:10.633Z,25.35
2022-10-22T16:40:37.205Z,25.05
2022-10-22T16:43:03.747Z,26.00
2022-10-22T16:45:30.327Z,23.40
2022-10-22T16:47:56.847Z,23.48
2022-10-22T16:50:23.405Z,24.83
2022-10-22T16:52:50.778Z,27.75
2022-10-22T16:55:17.598Z,24.75
2022-10-22T16:57:44.323Z,22.50
2022-10-22T17:00:11.803Z,28.02
2022-10-22T17:02:38.504Z,26.35
2022-10-22T17:05:05.532Z,26.17
2022-10-22T17:07:32.086Z,24.77
2022-10-22T17:09:58.708Z,26.08
2022-10-22T17:12:25.272Z,24.25
2022-10-22T17:14:51.836Z,23.38
2022-10-22T17:17:18.372Z,27.05
2022-10-22T17:19:44.930Z,25.67
2022-10-22T17:22:14.838Z,24.67
2022-10-22T17:24:44.208Z,25.92
2022-10-22T17:27:10.777Z,21.00
2022-10-22T17:29:37.400Z,30.75
2022-10-22T17:32:04.046Z,24.42
2022-10-22T17:34:33.153Z,25.73
2022-10-22T17:37:00.273Z,26.45
2022-10-22T17:39:27.064Z,26.98
2022-10-22T17:41:53.616Z,29.00
2022-10-22T17:44:20.204Z,25.60
2022-10-22T17:46:49.521Z,24.27
2022-10-22T17:49:18.233Z,24.08
2022-10-22T17:51:45.169Z,23.08
2022-10-22T17:54:12.529Z,25.83
2022-10-22T17:56:40.402Z,23.80
2022-10-22T17:59:07.909Z,22.13
2022-10-22T18:01:35.484Z,26.33
2022-10-22T18:04:04.106Z,28.42
2022-10-22T18:06:30.794Z,26.05
2022-10-22T18:08:57.440Z,26.15
2022-10-22T18:11:25.260Z,25.15
2022-10-22T18:16:18.760Z,25.35
2022-10-22T18:18:47.230Z,28.45
2022-10-22T18:21:14.822Z,30.40
2022-10-22T18:23:41.478Z,29.87
2022-10-22T18:26:08.013Z,29.35
2022-10-22T18:28:34.542Z,25.80
2022-10-22T18:31:05.384Z,26.98
2022-10-22T18:33:31.953Z,31.87
2022-10-22T18:36:05.400Z,32.10
2022-10-22T18:38:32.113Z,28.62
2022-10-22T18:40:58.652Z,29.10
2022-10-22T18:43:25.177Z,25.55
2022-10-22T18:45:51.771Z,25.75
2022-10-22T18:48:19.374Z,23.73
2022-10-22T18:50:46.985Z,24.20
2022-10-22T18:53:14.400Z,23.87
2022-10-22T18:55:41.066Z,27.10
2022-10-22T18:58:07.652Z,23.67
2022-10-22T19:00:38.526Z,23.73
2022-10-22T19:03:05.390Z,23.30
2022-10-22T19:05:31.908Z,22.17
2022-10-22T19:07:58.833Z,28.48
2022-10-22T19:10:25.373Z,23.97
2022-10-22T19:12:51.965Z,28.02
2022-10-22T19:15:18.624Z,23.92
2022-10-22T19:17:45.328Z,25.48
2022-10-22T19:20:11.963Z,27.92
2022-10-22T19:22:38.517Z,28.38
2022-10-22T19:25:07.125Z,24.27
2022-10-22T19:27:36.547Z,27.35
2022-10-22T19:30:04.492Z,25.17
2022-10-22T19:32:31.224Z,23.25
2022-10-22T19:34:57.857Z,26.67
2022-10-22T19:37:24.460Z,27.52
2022-10-22T19:39:51.010Z,26.08
2022-10-22T19:42:17.568Z,25.80
2022-10-22T19:44:44.104Z,29.60
2022-10-22T19:47:11.494Z,23.95
2022-10-22T19:49:38.030Z,23.87
2022-10-22T19:52:04.697Z,27.95
2022-10-22T19:54:31.232Z,28.33
2022-10-22T19:56:57.809Z,23.60
2022-10-22T19:59:28.646Z,27.37
2022-10-22T20:01:57.949Z,24.25
2022-10-22T20:04:25.827Z,27.02
2022-10-22T20:06:52.372Z,25.75
2022-10-22T20:09:18.984Z,28.02
2022-10-22T20:11:45.599Z,32.38
2022-10-22T20:14:12.543Z,29.67
2022-10-22T20:16:39.077Z,31.53
2022-10-22T20:19:08.995Z,33.17
2022-10-22T20:21:35.536Z,30.27
2022-10-22T20:24:02.091Z,29.85
2022-10-22T20:26:28.890Z,28.50
2022-10-22T20:28:56.284Z,33.03
2022-10-22T20:31:24.183Z,31.92
2022-10-22T20:33:50.920Z,30.33
2022-10-22T20:36:20.756Z,28.23
2022-10-22T20:38:48.280Z,33.17
2022-10-22T20:41:17.843Z,27.17
2022-10-22T20:43:45.574Z,30.75
2022-10-22T20:48:41.016Z,27.25
2022-10-22T20:51:07.550Z,27.70
2022-10-22T20:53:34.126Z,30.00
2022-10-22T20:56:00.682Z,31.48
2022-10-22T20:58:27.454Z,34.15
2022-10-22T21:00:54.318Z,29.37
2022-10-22T21:03:21.005Z,30.17
2022-10-22T21:05:47.706Z,31.73
2022-10-22T21:08:17.420Z,30.60
2022-10-22T21:10:49.041Z,28.00
2022-10-22T21:13:16.552Z,31.45
2022-10-22T21:15:43.119Z,28.77
2022-10-22T21:18:09.766Z,31.45
2022-10-22T21:20:36.353Z,31.48
2022-10-22T21:23:02.915Z,30.88
2022-10-22T21:25:29.459Z,31.85
2022-10-22T21:27:56.042Z,29.05
2022-10-22T21:30:22.581Z,30.15
2022-10-22T21:32:49.135Z,29.67
2022-10-22T21:35:15.707Z,35.78
2022-10-22T21:37:42.529Z,27.98
2022-10-22T21:40:09.768Z,30.10
2022-10-22T21:42:36.287Z,29.98
2022-10-22T21:45:02.886Z,33.15
2022-10-22T21:47:29.471Z,32.83
2022-10-22T21:49:55.998Z,31.15
2022-10-22T21:52:22.576Z,29.20
2022-10-22T21:54:49.131Z,29.30
2022-10-22T21:57:15.657Z,29.77
2022-10-22T21:59:42.192Z,33.28
2022-10-22T22:02:08.755Z,31.33
2022-10-22T22:04:35.323Z,31.48
2022-10-22T22:07:01.879Z,33.53
2022-10-22T22:09:28.469Z,33.15
2022-10-22T22:11:55.002Z,31.10
2022-10-22T22:14:21.535Z,30.55
2022-10-22T22:16:48.089Z,28.33
2022-10-22T22:19:14.685Z,33.28
2022-10-22T22:21:41.377Z,29.42
2022-10-22T22:24:08.728Z,35.63
2022-10-22T22:26:35.374Z,29.60
2022-10-22T22:29:01.997Z,34.35
2022-10-22T22:31:32.739Z,35.25
2022-10-22T22:34:03.617Z,34.75
2022-10-22T22:36:33.893Z,33.13
2022-10-22T22:39:00.443Z,32.22
2022-10-22T22:41:26.967Z,30.40
2022-10-22T22:46:24.938Z,32.08
2022-10-22T22:48:51.519Z,34.15
2022-10-22T22:51:18.195Z,29.10
2022-10-22T22:53:44.748Z,30.62
2022-10-22T22:56:19.182Z,29.02
2022-10-22T22:58:45.815Z,29.33
2022-10-22T23:01:29.109Z,33.22
2022-10-22T23:04:00.513Z,30.35
2022-10-22T23:06:28.754Z,26.87
2022-10-22T23:08:55.583Z,25.55
2022-10-22T23:11:22.365Z,25.50
2022-10-22T23:13:51.932Z,25.17
2022-10-22T23:16:19.895Z,25.75
2022-10-22T23:18:47.290Z,25.70
2022-10-22T23:21:15.767Z,26.55
2022-10-22T23:23:44.442Z,26.35
2022-10-22T23:26:14.542Z,25.20
2022-10-22T23:28:41.192Z,27.85
2022-10-22T23:31:07.870Z,28.98
2022-10-22T23:33:34.939Z,27.30
2022-10-22T23:36:01.975Z,27.60
2022-10-22T23:38:28.604Z,28.45
2022-10-22T23:40:56.560Z,28.80
2022-10-22T23:43:26.280Z,27.35
2022-10-22T23:45:52.865Z,27.48
2022-10-22T23:48:19.779Z,27.65
2022-10-22T23:50:46.653Z,28.73
2022-10-22T23:53:13.308Z,28.37
2022-10-22T23:55:40.457Z,28.20
2022-10-22T23:58:07.069Z,35.30
